createdAt,value
2022-08-26T00:01:36.712Z,22.99
2022-08-26T00:04:03.401Z,22.91
2022-08-26T00:06:33.338Z,22.88
2022-08-26T00:09:00.341Z,22.81
2022-08-26T00:11:27.369Z,22.70
2022-08-26T00:13:55.658Z,22.88
2022-08-26T00:16:24.718Z,22.80
2022-08-26T00:18:51.557Z,22.89
2022-08-26T00:21:18.554Z,22.87
2022-08-26T00:23:46.234Z,22.74
2022-08-26T00:26:14.322Z,22.77
2022-08-26T00:28:41.434Z,22.80
2022-08-26T00:31:10.781Z,22.56
2022-08-26T00:33:38.536Z,22.46
2022-08-26T00:36:05.563Z,22.64
2022-08-26T00:38:32.544Z,22.62
2022-08-26T00:40:59.233Z,22.59
2022-08-26T00:43:26.795Z,22.54
2022-08-26T00:46:23.469Z,22.46
2022-08-26T00:48:53.885Z,22.39
2022-08-26T00:51:24.894Z,22.49
2022-08-26T00:54:04.285Z,22.50
2022-08-26T00:56:38.193Z,22.51
2022-08-26T00:59:11.800Z,22.45
2022-08-26T01:01:41.128Z,22.47
2022-08-26T01:04:09.200Z,22.48
2022-08-26T01:06:35.884Z,22.55
2022-08-26T01:09:02.814Z,22.47
2022-08-26T01:11:29.586Z,22.45
2022-08-26T01:14:00.515Z,22.45
2022-08-26T01:16:29.945Z,22.44
2022-08-26T01:18:59.683Z,22.40
2022-08-26T01:21:41.344Z,22.32
2022-08-26T01:24:10.285Z,22.34
2022-08-26T01:26:41.327Z,22.34
2022-08-26T01:29:12.931Z,22.43
2022-08-26T01:31:47.225Z,22.49
2022-08-26T01:34:17.268Z,22.25
2022-08-26T01:36:50.601Z,22.12
2022-08-26T01:39:18.920Z,22.28
2022-08-26T01:41:47.575Z,22.14
2022-08-26T01:44:24.246Z,22.23
2022-08-26T01:46:52.899Z,22.25
2022-08-26T01:49:22.307Z,22.19
2022-08-26T01:51:51.594Z,22.33
2022-08-26T01:54:20.591Z,22.25
2022-08-26T01:56:50.926Z,22.22
2022-08-26T01:59:20.355Z,22.13
2022-08-26T02:01:48.578Z,22.09
2022-08-26T02:04:23.795Z,22.22
2022-08-26T02:06:51.702Z,22.14
2022-08-26T02:09:19.774Z,22.01
2022-08-26T02:11:47.670Z,22.01
2022-08-26T02:14:21.521Z,22.06
2022-08-26T02:16:52.069Z,22.13
2022-08-26T02:19:26.273Z,22.04
2022-08-26T02:21:53.826Z,22.07
2022-08-26T02:24:24.646Z,22.04
2022-08-26T02:26:55.086Z,22.04
2022-08-26T02:29:25.131Z,22.23
2022-08-26T02:31:52.965Z,22.09
2022-08-26T02:34:23.559Z,22.07
2022-08-26T02:36:57.073Z,22.00
2022-08-26T02:39:24.477Z,21.93
2022-08-26T02:41:51.313Z,21.91
2022-08-26T02:44:18.009Z,21.94
2022-08-26T02:46:47.102Z,21.99
2022-08-26T02:49:14.975Z,21.94
2022-08-26T02:51:43.108Z,21.87
2022-08-26T02:54:09.830Z,21.73
2022-08-26T02:56:36.779Z,21.91
2022-08-26T02:59:03.473Z,21.80
2022-08-26T03:01:33.116Z,21.80
2022-08-26T03:04:01.978Z,21.65
2022-08-26T03:06:28.896Z,21.74
2022-08-26T03:08:55.878Z,21.76
2022-08-26T03:11:23.643Z,21.71
2022-08-26T03:13:51.766Z,21.63
2022-08-26T03:16:18.975Z,21.81
2022-08-26T03:18:51.963Z,21.65
2022-08-26T03:21:19.827Z,21.57
2022-08-26T03:23:46.584Z,21.70
2022-08-26T03:26:14.968Z,21.61
2022-08-26T03:29:01.442Z,21.51
2022-08-26T03:31:29.715Z,21.65
2022-08-26T03:33:59.801Z,21.63
2022-08-26T03:36:27.393Z,21.65
2022-08-26T03:38:54.448Z,21.51
2022-08-26T03:41:21.410Z,21.70
2022-08-26T03:43:50.775Z,21.50
2022-08-26T03:46:18.804Z,21.47
2022-08-26T03:48:45.837Z,21.71
2022-08-26T03:51:18.170Z,21.63
2022-08-26T03:53:46.928Z,21.65
2022-08-26T03:56:15.135Z,21.71
2022-08-26T03:58:42.855Z,21.73
2022-08-26T04:01:09.806Z,21.79
2022-08-26T04:03:54.784Z,21.74
2022-08-26T04:06:21.548Z,21.64
2022-08-26T04:08:48.394Z,21.63
2022-08-26T04:11:20.278Z,21.85
2022-08-26T04:13:48.629Z,21.86
2022-08-26T04:16:17.613Z,21.72
2022-08-26T04:18:46.958Z,21.89
2022-08-26T04:21:13.668Z,21.67
2022-08-26T04:23:47.068Z,21.73
2022-08-26T04:26:15.786Z,21.65
2022-08-26T04:28:42.795Z,21.73
2022-08-26T04:31:17.516Z,21.88
2022-08-26T04:33:47.626Z,21.83
2022-08-26T04:36:16.735Z,21.78
2022-08-26T04:38:44.558Z,21.77
2022-08-26T04:41:15.552Z,21.80
2022-08-26T04:43:44.404Z,21.76
2022-08-26T04:46:13.066Z,21.74
2022-08-26T04:48:41.148Z,21.80
2022-08-26T04:51:09.867Z,21.73
2022-08-26T04:53:37.408Z,21.77
2022-08-26T04:56:04.160Z,21.78
2022-08-26T04:58:31.106Z,21.90
2022-08-26T05:00:58.531Z,21.76
2022-08-26T05:03:27.442Z,21.62
2022-08-26T05:05:58.347Z,21.84
2022-08-26T05:08:25.475Z,21.93
2022-08-26T05:10:56.272Z,21.95
2022-08-26T05:13:26.277Z,21.92
2022-08-26T05:15:53.273Z,22.20
2022-08-26T05:18:23.679Z,22.22
2022-08-26T05:20:54.526Z,22.20
2022-08-26T05:23:22.955Z,22.27
2022-08-26T05:25:54.627Z,22.17
2022-08-26T05:28:23.784Z,22.22
2022-08-26T05:30:51.253Z,22.46
2022-08-26T05:33:19.604Z,22.48
2022-08-26T05:35:47.193Z,22.37
2022-08-26T05:38:19.299Z,22.47
2022-08-26T05:40:49.512Z,22.37
2022-08-26T05:43:21.282Z,22.49
2022-08-26T05:45:50.575Z,22.60
2022-08-26T05:48:22.814Z,22.68
2022-08-26T05:50:52.983Z,22.56
2022-08-26T05:53:21.460Z,22.50
2022-08-26T05:55:51.488Z,22.59
2022-08-26T05:58:21.248Z,22.52
2022-08-26T06:01:03.846Z,22.50
2022-08-26T06:03:33.999Z,22.52
2022-08-26T06:06:14.149Z,22.53
2022-08-26T06:08:41.202Z,22.48
2022-08-26T06:11:18.333Z,22.31
2022-08-26T06:13:46.531Z,22.21
2022-08-26T06:16:15.762Z,22.38
2022-08-26T06:18:45.127Z,22.37
2022-08-26T06:21:11.878Z,22.40
2022-08-26T06:23:57.166Z,22.41
2022-08-26T06:26:26.150Z,22.27
2022-08-26T06:28:53.174Z,22.50
2022-08-26T06:31:19.853Z,22.29
2022-08-26T06:33:46.681Z,22.33
2022-08-26T06:36:19.517Z,22.49
2022-08-26T06:38:50.431Z,22.46
2022-08-26T06:41:18.115Z,22.59
2022-08-26T06:43:44.775Z,22.44
2022-08-26T06:46:13.193Z,22.61
2022-08-26T06:48:40.400Z,22.65
2022-08-26T06:51:17.160Z,22.66
2022-08-26T06:53:46.938Z,22.66
2022-08-26T06:56:17.847Z,22.77
2022-08-26T06:58:45.811Z,22.76
2022-08-26T07:01:22.617Z,22.82
2022-08-26T07:03:54.309Z,22.76
2022-08-26T07:06:25.340Z,22.78
2022-08-26T07:08:54.003Z,22.87
2022-08-26T07:11:21.164Z,23.02
2022-08-26T07:13:47.718Z,23.24
2022-08-26T07:16:17.516Z,23.37
2022-08-26T07:18:45.450Z,23.33
2022-08-26T07:21:15.266Z,23.34
2022-08-26T07:23:42.237Z,23.56
2022-08-26T07:26:13.022Z,23.52
2022-08-26T07:28:39.609Z,23.48
2022-08-26T07:31:09.645Z,23.71
2022-08-26T07:33:38.740Z,23.76
2022-08-26T07:36:08.049Z,24.02
2022-08-26T07:38:36.638Z,24.00
2022-08-26T07:41:03.591Z,24.13
2022-08-26T07:43:31.433Z,24.42
2022-08-26T07:45:58.202Z,24.48
2022-08-26T07:48:25.117Z,24.63
2022-08-26T07:50:53.755Z,24.66
2022-08-26T07:53:22.049Z,24.75
2022-08-26T07:55:50.990Z,24.82
2022-08-26T07:58:17.905Z,24.73
2022-08-26T08:00:45.193Z,24.99
2022-08-26T08:03:12.336Z,24.85
2022-08-26T08:05:41.424Z,24.84
2022-08-26T08:08:26.838Z,24.98
2022-08-26T08:10:55.759Z,25.10
2022-08-26T08:13:23.574Z,24.96
2022-08-26T08:15:50.732Z,25.02
2022-08-26T08:18:18.173Z,25.46
2022-08-26T08:21:04.754Z,25.63
2022-08-26T08:23:32.918Z,26.13
2022-08-26T08:26:05.041Z,26.06
2022-08-26T08:28:32.281Z,26.34
2022-08-26T08:30:59.627Z,26.80
2022-08-26T08:33:26.607Z,27.11
2022-08-26T08:35:53.222Z,27.27
2022-08-26T08:38:19.806Z,27.31
2022-08-26T08:40:46.588Z,27.62
2022-08-26T08:43:17.466Z,27.81
2022-08-26T08:45:57.684Z,27.91
2022-08-26T08:48:31.918Z,27.89
2022-08-26T08:51:13.992Z,28.09
2022-08-26T08:53:48.066Z,28.24
2022-08-26T08:56:23.914Z,28.19
2022-08-26T08:59:29.325Z,28.27
2022-08-26T09:02:30.074Z,28.27
2022-08-26T09:05:22.235Z,28.40
2022-08-26T09:08:12.632Z,28.66
2022-08-26T09:10:52.175Z,28.77
2022-08-26T09:13:25.351Z,29.14
2022-08-26T09:16:10.078Z,29.43
2022-08-26T09:18:55.388Z,29.47
2022-08-26T09:21:25.185Z,29.69
2022-08-26T09:23:55.726Z,30.01
2022-08-26T09:26:30.640Z,30.14
2022-08-26T09:29:03.755Z,30.27
2022-08-26T09:31:34.200Z,30.30
2022-08-26T09:34:23.818Z,30.55
2022-08-26T09:37:00.663Z,30.58
2022-08-26T09:39:39.627Z,30.34
2022-08-26T09:42:22.564Z,30.38
2022-08-26T09:44:59.603Z,30.18
2022-08-26T09:47:46.421Z,30.31
2022-08-26T09:50:29.139Z,30.06
2022-08-26T09:53:09.939Z,30.18
2022-08-26T09:55:42.202Z,30.25
2022-08-26T09:58:13.740Z,30.33
2022-08-26T10:00:52.716Z,30.48
2022-08-26T10:03:37.774Z,30.47
2022-08-26T10:06:21.042Z,30.64
2022-08-26T10:08:52.485Z,30.90
2022-08-26T10:11:45.209Z,31.12
2022-08-26T10:14:29.629Z,31.18
2022-08-26T10:17:08.755Z,31.09
2022-08-26T10:19:56.998Z,31.11
2022-08-26T10:22:59.200Z,31.14
2022-08-26T10:25:33.349Z,31.11
2022-08-26T10:28:08.088Z,31.07
2022-08-26T10:30:44.936Z,31.23
2022-08-26T10:33:15.430Z,31.31
2022-08-26T10:35:56.808Z,31.35
2022-08-26T10:38:34.634Z,31.26
2022-08-26T10:41:09.980Z,31.37
2022-08-26T10:43:43.034Z,31.35
2022-08-26T10:46:17.084Z,31.41
2022-08-26T10:48:53.697Z,31.44
2022-08-26T10:51:26.812Z,31.63
2022-08-26T10:54:01.045Z,31.90
2022-08-26T10:56:44.953Z,31.93
2022-08-26T10:59:34.302Z,32.05
2022-08-26T11:02:46.966Z,31.81
2022-08-26T11:05:19.560Z,31.81
2022-08-26T11:07:51.409Z,31.74
2022-08-26T11:10:21.561Z,31.75
2022-08-26T11:13:00.192Z,31.81
2022-08-26T11:15:28.169Z,31.95
2022-08-26T11:18:03.850Z,31.93
2022-08-26T11:20:33.304Z,32.00
2022-08-26T11:23:27.207Z,31.99
2022-08-26T11:25:56.953Z,32.05
2022-08-26T11:28:44.211Z,32.07
2022-08-26T11:31:26.235Z,32.17
2022-08-26T11:33:59.857Z,32.21
2022-08-26T11:37:03.493Z,32.24
2022-08-26T11:39:33.328Z,32.25
2022-08-26T11:42:25.290Z,32.22
2022-08-26T11:44:57.914Z,32.44
2022-08-26T11:47:31.103Z,32.41
2022-08-26T11:50:13.725Z,32.29
2022-08-26T11:52:40.403Z,32.29
2022-08-26T11:55:14.771Z,31.93
2022-08-26T11:57:55.916Z,31.80
2022-08-26T12:00:33.427Z,31.52
2022-08-26T12:03:05.646Z,31.45
2022-08-26T12:05:36.344Z,31.40
2022-08-26T12:08:11.308Z,31.46
2022-08-26T12:10:38.798Z,31.41
2022-08-26T12:13:07.305Z,31.21
2022-08-26T12:15:35.609Z,30.95
2022-08-26T12:18:28.938Z,30.80
2022-08-26T12:20:59.548Z,30.91
2022-08-26T12:23:35.192Z,30.91
2022-08-26T12:26:28.248Z,31.13
2022-08-26T12:29:19.866Z,31.13
2022-08-26T12:31:48.041Z,31.28
2022-08-26T12:34:19.724Z,31.35
2022-08-26T12:36:53.799Z,31.37
2022-08-26T12:39:36.392Z,31.46
2022-08-26T12:42:26.790Z,31.65
2022-08-26T12:45:06.652Z,31.48
2022-08-26T12:47:43.541Z,31.26
2022-08-26T12:50:23.566Z,31.37
2022-08-26T12:52:59.261Z,31.30
2022-08-26T12:55:42.628Z,31.28
2022-08-26T12:58:32.415Z,30.79
2022-08-26T13:01:22.277Z,30.90
2022-08-26T13:03:49.791Z,31.08
2022-08-26T13:06:31.644Z,31.20
2022-08-26T13:09:05.484Z,31.11
2022-08-26T13:11:55.371Z,31.18
2022-08-26T13:14:24.663Z,31.02
2022-08-26T13:16:52.977Z,31.05
2022-08-26T13:19:22.622Z,30.99
2022-08-26T13:21:55.422Z,31.04
2022-08-26T13:24:56.932Z,31.04
2022-08-26T13:27:26.295Z,31.09
2022-08-26T13:29:54.409Z,31.09
2022-08-26T13:32:23.774Z,31.22
2022-08-26T13:34:54.823Z,31.09
2022-08-26T13:37:22.404Z,30.79
2022-08-26T13:40:01.602Z,30.77
2022-08-26T13:42:28.317Z,30.72
2022-08-26T13:44:58.127Z,30.62
2022-08-26T13:47:26.040Z,30.69
2022-08-26T13:49:54.983Z,30.74
2022-08-26T13:52:25.500Z,30.84
2022-08-26T13:55:00.241Z,30.91
2022-08-26T13:57:28.441Z,30.88
2022-08-26T13:59:57.108Z,30.92
2022-08-26T14:02:23.763Z,30.92
2022-08-26T14:04:50.381Z,30.85
2022-08-26T14:07:17.449Z,30.99
2022-08-26T14:09:44.046Z,30.78
2022-08-26T14:12:10.677Z,30.59
2022-08-26T14:14:37.283Z,30.79
2022-08-26T14:17:03.960Z,30.88
2022-08-26T14:19:31.496Z,31.03
2022-08-26T14:22:00.804Z,30.99
2022-08-26T14:24:28.872Z,30.83
2022-08-26T14:26:55.514Z,30.97
2022-08-26T14:29:22.108Z,30.98
2022-08-26T14:31:48.710Z,31.14
2022-08-26T14:34:15.717Z,30.91
2022-08-26T14:36:42.457Z,30.91
2022-08-26T14:39:11.483Z,30.77
2022-08-26T14:41:53.968Z,30.93
2022-08-26T14:44:24.444Z,30.85
2022-08-26T14:46:52.852Z,30.99
2022-08-26T14:49:21.223Z,30.79
2022-08-26T14:51:48.086Z,30.68
2022-08-26T14:54:16.642Z,30.69
2022-08-26T14:56:46.233Z,30.92
2022-08-26T14:59:15.740Z,30.76
2022-08-26T15:01:42.468Z,30.84
2022-08-26T15:04:09.133Z,30.70
2022-08-26T15:06:36.420Z,30.52
2022-08-26T15:09:03.969Z,30.54
2022-08-26T15:11:30.641Z,30.54
2022-08-26T15:13:57.490Z,30.54
2022-08-26T15:16:24.389Z,30.20
2022-08-26T15:18:51.715Z,30.15
2022-08-26T15:21:19.992Z,30.04
2022-08-26T15:23:48.438Z,29.89
2022-08-26T15:26:16.497Z,29.73
2022-08-26T15:28:43.473Z,29.77
2022-08-26T15:31:10.108Z,29.66
2022-08-26T15:33:37.010Z,29.42
2022-08-26T15:36:05.848Z,29.28
2022-08-26T15:38:36.612Z,29.34
2022-08-26T15:41:05.999Z,29.37
2022-08-26T15:43:32.970Z,29.50
2022-08-26T15:45:59.727Z,29.56
2022-08-26T15:48:27.301Z,29.28
2022-08-26T15:51:00.559Z,29.41
2022-08-26T15:53:31.273Z,29.33
2022-08-26T15:55:59.617Z,29.37
2022-08-26T15:58:28.246Z,29.27
2022-08-26T16:00:56.251Z,29.12
2022-08-26T16:03:22.971Z,29.11
2022-08-26T16:05:50.206Z,29.04
2022-08-26T16:08:17.448Z,28.79
2022-08-26T16:10:50.413Z,28.83
2022-08-26T16:13:20.087Z,28.78
2022-08-26T16:15:47.915Z,28.67
2022-08-26T16:18:15.641Z,28.84
2022-08-26T16:20:55.262Z,28.63
2022-08-26T16:23:40.889Z,28.73
2022-08-26T16:26:17.057Z,28.62
2022-08-26T16:28:43.808Z,28.58
2022-08-26T16:31:11.264Z,28.46
2022-08-26T16:33:38.006Z,28.57
2022-08-26T16:36:06.476Z,28.44
2022-08-26T16:38:33.646Z,28.43
2022-08-26T16:41:01.199Z,28.49
2022-08-26T16:43:28.748Z,28.46
2022-08-26T16:45:56.298Z,28.30
2022-08-26T16:48:23.784Z,28.24
2022-08-26T16:50:51.846Z,28.36
2022-08-26T16:53:19.122Z,28.29
2022-08-26T16:55:47.636Z,28.43
2022-08-26T16:58:14.747Z,28.23
2022-08-26T17:00:41.264Z,28.18
2022-08-26T17:03:08.275Z,28.23
2022-08-26T17:05:36.316Z,28.08
2022-08-26T17:08:04.052Z,27.84
2022-08-26T17:10:31.217Z,27.72
2022-08-26T17:12:58.431Z,27.70
2022-08-26T17:15:25.545Z,27.71
2022-08-26T17:17:53.591Z,27.66
2022-08-26T17:20:22.407Z,27.60
2022-08-26T17:22:51.481Z,27.54
2022-08-26T17:25:29.595Z,27.58
2022-08-26T17:30:28.437Z,27.45
2022-08-26T17:32:57.891Z,27.41
2022-08-26T17:35:24.553Z,27.33
2022-08-26T17:37:51.362Z,27.26
2022-08-26T17:40:25.313Z,27.33
2022-08-26T17:42:52.006Z,27.42
2022-08-26T17:47:50.936Z,27.24
2022-08-26T17:50:18.432Z,27.35
2022-08-26T17:52:45.945Z,27.39
2022-08-26T17:55:15.238Z,27.41
2022-08-26T17:57:43.982Z,27.21
2022-08-26T18:00:23.027Z,27.04
2022-08-26T18:02:49.670Z,27.03
2022-08-26T18:05:17.555Z,27.00
2022-08-26T18:07:44.927Z,26.99
2022-08-26T18:10:13.840Z,27.02
2022-08-26T18:12:41.776Z,27.04
2022-08-26T18:15:10.453Z,26.92
2022-08-26T18:17:39.297Z,26.86
2022-08-26T18:20:16.147Z,26.87
2022-08-26T18:22:43.600Z,26.87
2022-08-26T18:25:12.435Z,26.83
2022-08-26T18:27:39.577Z,26.81
2022-08-26T18:30:07.548Z,26.77
2022-08-26T18:32:34.299Z,26.71
2022-08-26T18:35:01.129Z,26.63
2022-08-26T18:37:30.913Z,26.64
2022-08-26T18:39:59.561Z,26.59
2022-08-26T18:42:27.172Z,26.58
2022-08-26T18:44:54.271Z,26.63
2022-08-26T18:47:20.833Z,26.63
2022-08-26T18:49:48.648Z,26.38
2022-08-26T18:52:15.488Z,26.14
2022-08-26T18:54:42.512Z,25.97
2022-08-26T18:57:09.943Z,25.90
2022-08-26T18:59:36.645Z,25.90
2022-08-26T19:02:03.446Z,25.95
2022-08-26T19:04:30.180Z,25.90
2022-08-26T19:06:56.861Z,25.85
2022-08-26T19:09:26.227Z,25.82
2022-08-26T19:11:53.069Z,25.71
2022-08-26T19:14:19.939Z,25.59
2022-08-26T19:16:48.885Z,25.45
2022-08-26T19:19:15.882Z,25.24
2022-08-26T19:21:42.769Z,25.15
2022-08-26T19:24:15.595Z,25.23
2022-08-26T19:26:47.284Z,25.03
2022-08-26T19:29:15.271Z,24.83
2022-08-26T19:31:44.043Z,24.60
2022-08-26T19:34:11.905Z,24.43
2022-08-26T19:36:39.362Z,24.34
2022-08-26T19:39:11.898Z,24.26
2022-08-26T19:41:39.074Z,24.16
2022-08-26T19:44:38.122Z,24.04
2022-08-26T19:47:07.222Z,24.01
2022-08-26T19:49:34.842Z,23.82
2022-08-26T19:52:03.182Z,23.74
2022-08-26T19:54:30.339Z,23.59
2022-08-26T19:56:57.488Z,23.56
2022-08-26T19:59:24.423Z,23.56
2022-08-26T20:01:52.932Z,23.52
2022-08-26T20:04:28.901Z,23.56
2022-08-26T20:06:58.717Z,23.53
2022-08-26T20:09:29.143Z,23.45
2022-08-26T20:11:56.968Z,23.43
2022-08-26T20:14:29.549Z,23.37
2022-08-26T20:16:56.353Z,23.30
2022-08-26T20:19:41.554Z,23.23
2022-08-26T20:22:08.693Z,23.13
2022-08-26T20:24:35.613Z,23.07
2022-08-26T20:27:07.293Z,23.08
2022-08-26T20:29:35.159Z,23.05
2022-08-26T20:32:02.705Z,22.92
2022-08-26T20:34:30.151Z,22.83
2022-08-26T20:36:56.857Z,22.68
2022-08-26T20:39:23.618Z,22.56
2022-08-26T20:41:50.298Z,22.52
2022-08-26T20:44:17.662Z,22.39
2022-08-26T20:46:44.662Z,22.55
2022-08-26T20:49:13.246Z,22.51
2022-08-26T20:51:39.947Z,22.49
2022-08-26T20:54:07.471Z,22.40
2022-08-26T20:56:34.521Z,22.32
2022-08-26T20:59:01.743Z,22.29
2022-08-26T21:01:30.782Z,22.24
2022-08-26T21:03:57.554Z,22.20
2022-08-26T21:06:24.579Z,22.18
2022-08-26T21:08:51.290Z,22.17
2022-08-26T21:11:18.288Z,22.07
2022-08-26T21:14:03.885Z,22.07
2022-08-26T21:31:29.835Z,22.76
2022-08-26T21:33:56.734Z,22.61
2022-08-26T21:36:23.863Z,22.59
2022-08-26T21:38:50.448Z,22.58
2022-08-26T21:41:22.003Z,22.52
2022-08-26T21:43:50.100Z,22.50
2022-08-26T21:46:20.219Z,22.47
2022-08-26T21:48:50.939Z,22.49
2022-08-26T21:51:20.263Z,22.42
2022-08-26T21:53:47.624Z,22.34
2022-08-26T21:56:15.840Z,22.35
2022-08-26T21:58:42.967Z,22.32
2022-08-26T22:01:16.835Z,22.38
2022-08-26T22:03:46.979Z,22.32
2022-08-26T22:06:19.494Z,22.17
2022-08-26T22:08:46.182Z,22.15
2022-08-26T22:11:14.271Z,22.03
2022-08-26T22:13:42.362Z,21.88
2022-08-26T22:16:10.063Z,21.74
2022-08-26T22:18:38.199Z,21.76
2022-08-26T22:21:08.225Z,21.80
2022-08-26T22:23:36.370Z,21.80
2022-08-26T22:26:05.140Z,21.85
2022-08-26T22:28:31.837Z,21.72
2022-08-26T22:30:58.597Z,21.64
2022-08-26T22:33:25.865Z,21.59
2022-08-26T22:35:52.971Z,21.55
2022-08-26T22:38:20.201Z,21.48
2022-08-26T22:40:50.359Z,21.42
2022-08-26T22:43:19.081Z,21.41
2022-08-26T22:45:48.507Z,21.34
2022-08-26T22:48:18.662Z,21.34
2022-08-26T22:50:47.138Z,21.32
2022-08-26T22:53:15.812Z,21.23
2022-08-26T22:55:43.494Z,21.18
2022-08-26T22:58:11.685Z,21.09
2022-08-26T23:00:40.278Z,21.04
2022-08-26T23:03:07.757Z,21.01
2022-08-26T23:05:34.750Z,20.90
2022-08-26T23:08:01.463Z,20.83
2022-08-26T23:10:28.770Z,20.76
2022-08-26T23:12:55.394Z,20.67
2022-08-26T23:15:22.321Z,20.62
2022-08-26T23:17:55.870Z,20.62
2022-08-26T23:20:26.302Z,20.60
2022-08-26T23:22:53.520Z,20.62
2022-08-26T23:25:20.587Z,20.62
2022-08-26T23:27:47.237Z,20.64
2022-08-26T23:30:18.662Z,20.63
2022-08-26T23:32:45.607Z,20.59
2022-08-26T23:35:14.210Z,20.54
2022-08-26T23:37:44.255Z,20.53
2022-08-26T23:40:16.303Z,20.53
2022-08-26T23:42:42.972Z,20.50
2022-08-26T23:45:12.906Z,20.45
2022-08-26T23:47:41.136Z,20.37
2022-08-26T23:50:08.697Z,20.32
2022-08-26T23:52:53.853Z,20.29
2022-08-26T23:55:20.615Z,20.34
2022-08-26T23:57:47.624Z,20.28
